createdAt,value
2018-09-03T00:02:25.023Z,4.5
2018-09-03T00:08:20.014Z,4.3
2018-09-03T00:14:15.022Z,4.86
2018-09-03T00:20:10.056Z,4.7
2018-09-03T00:26:05.018Z,4.01
2018-09-03T00:32:00.050Z,4.43
2018-09-03T00:37:55.054Z,8.97
2018-09-03T00:43:50.051Z,3.52
2018-09-03T00:49:45.063Z,4.25
2018-09-03T00:55:40.107Z,4.06
2018-09-03T01:01:35.076Z,6.78
2018-09-03T01:07:30.053Z,3.71
2018-09-03T01:13:25.068Z,5.45
2018-09-03T01:19:20.099Z,3.94
2018-09-03T01:25:15.155Z,4.59
2018-09-03T01:31:10.109Z,4.58
2018-09-03T01:37:05.076Z,4.3
2018-09-03T01:43:00.100Z,4.31
2018-09-03T01:48:55.091Z,4.4
2018-09-03T01:54:50.122Z,5.35
2018-09-03T02:00:45.112Z,5.3
2018-09-03T02:06:40.100Z,6.06
2018-09-03T02:12:35.112Z,4.04
2018-09-03T02:18:30.122Z,4.64
2018-09-03T02:24:25.129Z,4.1
2018-09-03T02:30:20.144Z,4.5
2018-09-03T02:36:15.140Z,5.03
2018-09-03T02:42:10.192Z,4.66
2018-09-03T02:48:05.141Z,4.46
2018-09-03T02:54:00.134Z,5.08
2018-09-03T02:59:55.128Z,4.38
2018-09-03T03:05:50.153Z,4.18
2018-09-03T03:11:45.293Z,6.44
2018-09-03T03:17:40.160Z,5.65
2018-09-03T03:23:35.176Z,4.55
2018-09-03T03:29:30.164Z,6.09
2018-09-03T03:35:25.156Z,5.78
2018-09-03T03:41:20.190Z,5.71
2018-09-03T03:47:15.191Z,5.53
2018-09-03T03:53:10.179Z,5.64
2018-09-03T03:59:05.205Z,4.5
2018-09-03T04:05:00.261Z,4.46
2018-09-03T04:10:55.220Z,4.38
2018-09-03T04:16:50.202Z,4.95
2018-09-03T04:22:45.225Z,4.47
2018-09-03T04:28:40.214Z,5.5
2018-09-03T04:34:35.271Z,6.26
2018-09-03T04:40:30.217Z,7.56
2018-09-03T04:46:25.237Z,5.24
2018-09-03T04:52:20.216Z,4.67
2018-09-03T04:58:15.215Z,10.27
2018-09-03T05:04:10.224Z,5.29
2018-09-03T05:10:05.230Z,5.28
2018-09-03T05:16:00.237Z,5.75
2018-09-03T05:21:55.272Z,6.92
2018-09-03T05:27:50.256Z,5.77
2018-09-03T05:33:45.245Z,6.77
2018-09-03T05:39:40.249Z,7.83
2018-09-03T05:45:35.251Z,7.25
2018-09-03T05:51:30.349Z,7.9
2018-09-03T05:57:25.288Z,7.69
2018-09-03T06:03:20.311Z,5.87
2018-09-03T06:09:15.308Z,8.43
2018-09-03T06:15:10.321Z,9.09
2018-09-03T06:21:05.279Z,11.23
2018-09-03T06:27:00.329Z,9
2018-09-03T06:32:55.294Z,11.67
2018-09-03T06:38:50.301Z,7.8
2018-09-03T06:44:45.320Z,10.52
2018-09-03T06:50:40.305Z,15.36
2018-09-03T06:56:35.292Z,7.82
2018-09-03T07:02:30.315Z,16.56
2018-09-03T07:08:25.360Z,21.39
2018-09-03T07:14:20.324Z,21
2018-09-03T07:20:15.324Z,18.36
2018-09-03T07:26:10.331Z,14.1
2018-09-03T07:32:05.333Z,15.2
2018-09-03T07:38:00.344Z,13.56
2018-09-03T07:43:55.354Z,14.31
2018-09-03T07:49:50.358Z,13.79
2018-09-03T07:55:45.362Z,17.67
2018-09-03T08:01:40.367Z,13.59
2018-09-03T08:07:35.388Z,12.52
2018-09-03T08:13:30.366Z,12.96
2018-09-03T08:19:25.366Z,13.15
2018-09-03T08:25:20.396Z,9.39
2018-09-03T08:31:15.483Z,8.67
2018-09-03T08:37:10.409Z,9.3
2018-09-03T08:43:05.372Z,5.79
2018-09-03T08:49:00.388Z,8.91
2018-09-03T08:54:55.387Z,4.31
2018-09-03T09:00:50.390Z,5.62
2018-09-03T09:06:45.420Z,5.74
2018-09-03T09:12:40.424Z,3.77
2018-09-03T09:18:35.408Z,5.65
2018-09-03T09:24:30.426Z,3.18
2018-09-03T09:30:25.407Z,3.57
2018-09-03T09:36:20.438Z,2.75
2018-09-03T09:42:15.442Z,3.74
2018-09-03T09:48:10.469Z,3.95
2018-09-03T09:54:05.433Z,5.2
2018-09-03T10:00:00.488Z,3.55
2018-09-03T10:05:55.455Z,4.16
2018-09-03T10:11:50.465Z,3.62
2018-09-03T10:17:45.449Z,4.25
2018-09-03T10:23:40.544Z,3.35
2018-09-03T10:29:35.489Z,3.65
2018-09-03T10:35:30.471Z,3.6
2018-09-03T10:41:25.488Z,3.6
2018-09-03T10:47:20.613Z,2.78
2018-09-03T10:53:15.487Z,2.98
2018-09-03T10:59:10.516Z,4.04
2018-09-03T11:05:05.533Z,3.19
2018-09-03T11:11:00.515Z,3.65
2018-09-03T11:16:55.514Z,3.78
2018-09-03T11:22:50.521Z,3.51
2018-09-03T11:28:45.611Z,3.99
2018-09-03T11:34:40.534Z,3.43
2018-09-03T11:40:35.539Z,5.13
2018-09-03T11:46:30.528Z,3.1
2018-09-03T11:52:25.604Z,4.8
2018-09-03T11:58:20.552Z,3.72
2018-09-03T12:04:15.541Z,4.27
2018-09-03T12:10:10.676Z,2.99
2018-09-03T12:16:05.576Z,3.64
2018-09-03T12:22:00.576Z,3.36
2018-09-03T12:27:55.583Z,2.81
2018-09-03T12:33:50.580Z,2.8
2018-09-03T12:39:45.627Z,3.06
2018-09-03T12:45:40.600Z,3.16
2018-09-03T12:51:35.598Z,2.26
2018-09-03T12:57:30.604Z,2.21
2018-09-03T13:03:25.662Z,2.49
2018-09-03T13:09:20.625Z,1.69
2018-09-03T13:15:15.601Z,1.97
2018-09-03T13:21:10.622Z,2.02
2018-09-03T13:27:05.630Z,2.42
2018-09-03T13:33:00.634Z,2.2
2018-09-03T13:38:55.627Z,5.41
2018-09-03T13:44:50.635Z,2.22
2018-09-03T13:50:45.650Z,2.49
2018-09-03T13:56:40.706Z,2.6
2018-09-03T14:02:35.667Z,2.64
2018-09-03T14:08:30.651Z,2.55
2018-09-03T14:14:25.713Z,5.05
2018-09-03T14:20:20.721Z,2.86
2018-09-03T14:26:15.689Z,2.45
2018-09-03T14:32:10.713Z,2.09
2018-09-03T14:38:05.689Z,2.73
2018-09-03T14:44:00.695Z,1.87
2018-09-03T14:49:55.768Z,2.57
2018-09-03T14:55:50.713Z,2
2018-09-03T15:01:45.770Z,2.16
2018-09-03T15:07:40.730Z,2.19
2018-09-03T15:13:35.710Z,2.44
2018-09-03T15:19:30.725Z,2.85
2018-09-03T15:25:25.736Z,1.8
2018-09-03T15:31:20.735Z,2
2018-09-03T15:37:15.761Z,2.55
2018-09-03T15:43:10.812Z,4.65
2018-09-03T15:49:05.808Z,2.19
2018-09-03T15:55:00.757Z,3.57
2018-09-03T16:00:55.757Z,2.21
2018-09-03T16:06:50.775Z,2.26
2018-09-03T16:12:45.788Z,4.45
2018-09-03T16:18:40.780Z,3.5
2018-09-03T16:24:35.818Z,2.02
2018-09-03T16:30:30.779Z,2.75
2018-09-03T16:36:25.796Z,2.41
2018-09-03T16:42:20.847Z,2.09
2018-09-03T16:48:15.807Z,2.4
2018-09-03T16:54:10.802Z,2.88
2018-09-03T17:00:05.818Z,2.35
2018-09-03T17:06:00.920Z,2.81
2018-09-03T17:11:55.850Z,2.37
2018-09-03T17:17:50.827Z,2.63
2018-09-03T17:23:45.847Z,2.3
2018-09-03T17:29:40.841Z,2.39
2018-09-03T17:35:35.836Z,2.4
2018-09-03T17:41:30.862Z,2.54
2018-09-03T17:47:25.941Z,7.19
2018-09-03T17:53:20.878Z,3.85
2018-09-03T17:59:15.857Z,3.2
2018-09-03T18:05:10.847Z,3.7
2018-09-03T18:11:05.866Z,2.71
2018-09-03T18:17:00.934Z,6.19
2018-09-03T18:22:55.862Z,4.17
2018-09-03T18:28:50.880Z,5.07
2018-09-03T18:34:45.888Z,3.28
2018-09-03T18:40:40.877Z,2.81
2018-09-03T18:46:35.898Z,3.03
2018-09-03T18:52:30.905Z,3.59
2018-09-03T18:58:25.919Z,6.18
2018-09-03T19:04:20.922Z,3.37
2018-09-03T19:10:15.906Z,3.12
2018-09-03T19:16:10.910Z,3.87
2018-09-03T19:22:05.979Z,3.62
2018-09-03T19:28:00.928Z,5.31
2018-09-03T19:33:56.044Z,10.46
2018-09-03T19:39:50.930Z,3.52
2018-09-03T19:45:45.964Z,4.59
2018-09-03T19:51:40.972Z,5.58
2018-09-03T19:57:35.972Z,3.31
2018-09-03T20:03:30.940Z,3.6
2018-09-03T20:09:25.947Z,3.16
2018-09-03T20:15:20.984Z,3.71
2018-09-03T20:21:15.949Z,4.88
2018-09-03T20:27:10.985Z,4.24
2018-09-03T20:33:05.998Z,3.73
2018-09-03T20:39:01.035Z,3.91
2018-09-03T20:44:56.106Z,3.61
2018-09-03T20:50:51.011Z,6.08
2018-09-03T20:56:45.990Z,3.24
2018-09-03T21:02:41.037Z,4.45
2018-09-03T21:08:36.027Z,5.17
2018-09-03T21:14:31.072Z,5.02
2018-09-03T21:20:26.020Z,4.95
2018-09-03T21:26:21.009Z,6.27
2018-09-03T21:32:16.082Z,4.25
2018-09-03T21:38:11.044Z,6.55
2018-09-03T21:44:06.084Z,4.43
2018-09-03T21:50:01.035Z,4.76
2018-09-03T21:55:56.064Z,5.59
2018-09-03T22:01:51.068Z,4.58
2018-09-03T22:07:46.057Z,4.64
2018-09-03T22:13:41.101Z,6.53
2018-09-03T22:19:36.065Z,5.58
2018-09-03T22:25:31.119Z,5.61
2018-09-03T22:31:26.079Z,4.53
2018-09-03T22:37:21.050Z,4.58
2018-09-03T22:43:16.086Z,5.92
2018-09-03T22:49:11.112Z,4.95
2018-09-03T22:55:06.114Z,4.74
2018-09-03T23:01:01.116Z,4.47
2018-09-03T23:06:56.153Z,5.94
2018-09-03T23:12:51.097Z,4.52
2018-09-03T23:18:46.101Z,4.71
2018-09-03T23:24:41.198Z,5.39
2018-09-03T23:30:36.170Z,4.36
2018-09-03T23:36:31.132Z,5.5
2018-09-03T23:42:26.139Z,5.63
2018-09-03T23:48:21.151Z,5.72
2018-09-03T23:54:16.119Z,8.54
